createdAt,value
2024-04-18T00:01:35.081Z,101298.72
2024-04-18T00:04:03.022Z,101277.00
2024-04-18T00:06:31.142Z,101285.16
2024-04-18T00:08:58.810Z,101288.03
2024-04-18T00:11:26.822Z,101288.00
2024-04-18T00:13:54.573Z,101278.22
2024-04-18T00:16:22.213Z,101283.19
2024-04-18T00:18:50.112Z,101288.91
2024-04-18T00:21:17.887Z,101294.44
2024-04-18T00:23:45.632Z,101291.03
2024-04-18T00:26:13.393Z,101294.53
2024-04-18T00:28:41.594Z,101294.13
2024-04-18T00:31:09.313Z,101295.00
2024-04-18T00:33:37.130Z,101296.13
2024-04-18T00:36:08.303Z,101299.78
2024-04-18T00:38:36.018Z,101302.53
2024-04-18T00:41:04.215Z,101295.16
2024-04-18T00:43:31.920Z,101307.53
2024-04-18T00:46:00.679Z,101306.75
2024-04-18T00:48:30.851Z,101311.44
2024-04-18T00:51:03.732Z,101313.00
2024-04-18T00:53:32.632Z,101306.06
2024-04-18T00:56:00.625Z,101305.94
2024-04-18T00:58:28.575Z,101303.53
2024-04-18T01:00:56.551Z,101301.88
2024-04-18T01:03:24.401Z,101311.88
2024-04-18T01:06:13.872Z,101312.22
2024-04-18T01:09:23.500Z,101313.81
2024-04-18T01:11:59.245Z,101304.34
2024-04-18T01:14:27.067Z,101303.72
2024-04-18T01:16:54.820Z,101293.97
2024-04-18T01:19:22.685Z,101314.13
2024-04-18T01:21:50.741Z,101305.91
2024-04-18T01:24:20.051Z,101316.22
2024-04-18T01:26:47.791Z,101322.84
2024-04-18T01:29:15.559Z,101325.44
2024-04-18T01:31:43.215Z,101318.84
2024-04-18T01:34:11.176Z,101326.16
2024-04-18T01:36:39.003Z,101321.78
2024-04-18T01:39:06.914Z,101330.09
2024-04-18T01:41:35.623Z,101333.72
2024-04-18T01:44:03.958Z,101341.63
2024-04-18T01:46:31.603Z,101336.91
2024-04-18T01:49:25.015Z,101334.53
2024-04-18T01:52:33.191Z,101340.69
2024-04-18T01:55:01.033Z,101348.28
2024-04-18T01:57:28.723Z,101337.63
2024-04-18T01:59:56.428Z,101347.13
2024-04-18T02:02:26.127Z,101353.53
2024-04-18T02:04:54.029Z,101348.63
2024-04-18T02:07:21.791Z,101350.81
2024-04-18T02:09:49.538Z,101362.22
2024-04-18T02:12:17.341Z,101367.03
2024-04-18T02:14:45.111Z,101371.59
2024-04-18T02:17:12.845Z,101372.16
2024-04-18T02:19:40.596Z,101370.56
2024-04-18T02:22:08.219Z,101382.09
2024-04-18T02:25:05.551Z,101385.31
2024-04-18T02:27:34.534Z,101386.34
2024-04-18T02:30:02.466Z,101382.84
2024-04-18T02:32:30.301Z,101387.66
2024-04-18T02:34:57.942Z,101388.63
2024-04-18T02:37:25.695Z,101390.34
2024-04-18T02:39:53.486Z,101398.22
2024-04-18T02:42:21.289Z,101396.84
2024-04-18T02:44:49.284Z,101396.38
2024-04-18T02:47:17.102Z,101398.44
2024-04-18T02:50:09.045Z,101398.81
2024-04-18T02:52:36.703Z,101403.16
2024-04-18T02:55:23.304Z,101406.13
2024-04-18T02:57:50.995Z,101405.66
2024-04-18T03:00:18.890Z,101411.69
2024-04-18T03:02:46.657Z,101413.75
2024-04-18T03:05:16.766Z,101417.63
2024-04-18T03:07:49.215Z,101407.41
2024-04-18T03:10:16.989Z,101417.09
2024-04-18T03:12:44.888Z,101416.31
2024-04-18T03:15:12.653Z,101420.19
2024-04-18T03:17:40.476Z,101418.06
2024-04-18T03:20:08.769Z,101424.41
2024-04-18T03:22:36.550Z,101418.94
2024-04-18T03:25:05.318Z,101417.41
2024-04-18T03:27:33.503Z,101427.94
2024-04-18T03:30:01.300Z,101425.00
2024-04-18T03:32:29.184Z,101431.88
2024-04-18T03:34:57.075Z,101430.38
2024-04-18T03:37:24.864Z,101434.16
2024-04-18T03:39:52.679Z,101435.75
2024-04-18T03:43:04.251Z,101440.59
2024-04-18T03:45:32.254Z,101435.63
2024-04-18T03:47:59.998Z,101448.03
2024-04-18T03:50:28.820Z,101449.66
2024-04-18T03:52:56.528Z,101452.44
2024-04-18T03:55:24.274Z,101456.84
2024-04-18T03:57:52.057Z,101461.16
2024-04-18T04:00:19.887Z,101465.56
2024-04-18T04:02:48.173Z,101468.19
2024-04-18T04:05:15.976Z,101475.50
2024-04-18T04:07:43.633Z,101473.00
2024-04-18T04:10:11.339Z,101486.09
2024-04-18T04:12:40.137Z,101490.25
2024-04-18T04:15:08.631Z,101492.72
2024-04-18T04:17:38.790Z,101502.69
2024-04-18T04:20:07.111Z,101498.94
2024-04-18T04:22:34.807Z,101509.47
2024-04-18T04:25:02.479Z,101511.63
2024-04-18T04:27:31.388Z,101520.88
2024-04-18T04:30:00.259Z,101528.63
2024-04-18T04:32:29.185Z,101531.50
2024-04-18T04:35:56.776Z,101535.00
2024-04-18T04:38:25.269Z,101532.06
2024-04-18T04:40:53.177Z,101539.44
2024-04-18T04:43:22.019Z,101537.41
2024-04-18T04:45:55.937Z,101543.94
2024-04-18T04:48:23.887Z,101553.69
2024-04-18T04:51:00.891Z,101548.44
2024-04-18T04:53:29.885Z,101549.75
2024-04-18T04:55:57.607Z,101567.19
2024-04-18T04:58:26.083Z,101573.53
2024-04-18T05:01:00.056Z,101574.28
2024-04-18T05:03:28.165Z,101584.06
2024-04-18T05:05:55.947Z,101585.56
2024-04-18T05:08:23.685Z,101593.19
2024-04-18T05:10:51.406Z,101602.66
2024-04-18T05:13:19.130Z,101605.84
2024-04-18T05:15:47.419Z,101600.66
2024-04-18T05:18:16.973Z,101604.00
2024-04-18T05:20:44.678Z,101617.00
2024-04-18T05:23:12.424Z,101626.47
2024-04-18T05:25:40.099Z,101630.28
2024-04-18T05:28:34.149Z,101629.09
2024-04-18T05:31:02.500Z,101635.09
2024-04-18T05:33:31.762Z,101639.31
2024-04-18T05:35:59.740Z,101635.47
2024-04-18T05:38:27.924Z,101642.88
2024-04-18T05:41:27.864Z,101643.94
2024-04-18T05:43:58.484Z,101642.38
2024-04-18T05:46:27.134Z,101652.69
2024-04-18T05:48:54.981Z,101658.78
2024-04-18T05:51:22.890Z,101667.06
2024-04-18T05:53:50.639Z,101664.38
2024-04-18T05:56:18.417Z,101668.97
2024-04-18T05:58:46.573Z,101676.19
2024-04-18T06:01:14.514Z,101669.06
2024-04-18T06:03:42.468Z,101667.50
2024-04-18T06:06:10.182Z,101678.81
2024-04-18T06:08:37.874Z,101677.59
2024-04-18T06:11:05.876Z,101681.63
2024-04-18T06:13:36.347Z,101695.00
2024-04-18T06:16:04.288Z,101699.56
2024-04-18T06:18:57.026Z,101708.63
2024-04-18T06:21:24.814Z,101718.50
2024-04-18T06:23:52.570Z,101720.63
2024-04-18T06:26:20.263Z,101717.13
2024-04-18T06:28:47.995Z,101727.91
2024-04-18T06:31:18.074Z,101736.03
2024-04-18T06:33:47.980Z,101743.78
2024-04-18T06:36:16.180Z,101740.19
2024-04-18T06:38:43.910Z,101746.53
2024-04-18T06:41:11.604Z,101757.81
2024-04-18T06:43:39.296Z,101761.88
2024-04-18T06:46:07.160Z,101754.53
2024-04-18T06:48:35.031Z,101764.06
2024-04-18T06:51:02.799Z,101774.56
2024-04-18T06:53:30.651Z,101766.94
2024-04-18T06:55:58.265Z,101780.00
2024-04-18T06:58:25.947Z,101769.34
2024-04-18T07:00:53.772Z,101765.00
2024-04-18T07:03:21.788Z,101771.00
2024-04-18T07:05:49.683Z,101752.94
2024-04-18T07:08:17.514Z,101761.75
2024-04-18T07:10:45.404Z,101756.78
2024-04-18T07:13:13.145Z,101758.53
2024-04-18T07:15:40.951Z,101772.88
2024-04-18T07:18:08.820Z,101762.81
2024-04-18T07:21:16.282Z,101767.66
2024-04-18T07:23:45.470Z,101776.47
2024-04-18T07:26:14.045Z,101776.25
2024-04-18T07:28:41.829Z,101784.44
2024-04-18T07:31:09.523Z,101785.38
2024-04-18T07:33:37.294Z,101789.28
2024-04-18T07:36:05.514Z,101790.78
2024-04-18T07:38:33.302Z,101796.75
2024-04-18T07:41:00.990Z,101792.09
2024-04-18T07:43:28.666Z,101795.38
2024-04-18T07:45:56.409Z,101798.13
2024-04-18T07:48:24.398Z,101795.91
2024-04-18T07:50:52.778Z,101796.53
2024-04-18T07:53:20.468Z,101808.44
2024-04-18T07:55:48.276Z,101807.06
2024-04-18T07:58:16.581Z,101804.16
2024-04-18T08:01:33.756Z,101806.06
2024-04-18T08:04:25.646Z,101813.88
2024-04-18T08:07:03.795Z,101797.47
2024-04-18T08:09:36.220Z,101803.50
2024-04-18T08:12:23.864Z,101805.16
2024-04-18T08:14:58.114Z,101814.47
2024-04-18T08:17:29.637Z,101805.69
2024-04-18T08:19:57.428Z,101808.75
2024-04-18T08:22:26.120Z,101811.31
2024-04-18T08:24:53.956Z,101809.06
2024-04-18T08:27:21.785Z,101814.53
2024-04-18T08:29:49.484Z,101823.56
2024-04-18T08:32:17.157Z,101824.97
2024-04-18T08:34:45.240Z,101836.94
2024-04-18T08:37:13.490Z,101836.66
2024-04-18T08:39:41.248Z,101837.97
2024-04-18T08:42:17.062Z,101840.06
2024-04-18T08:44:44.952Z,101845.22
2024-04-18T08:47:15.064Z,101841.41
2024-04-18T08:49:44.327Z,101847.97
2024-04-18T08:52:14.155Z,101862.16
2024-04-18T08:54:41.941Z,101864.38
2024-04-18T08:57:12.981Z,101864.13
2024-04-18T08:59:48.141Z,101856.22
2024-04-18T09:02:17.314Z,101868.06
2024-04-18T09:04:45.912Z,101869.03
2024-04-18T09:07:13.690Z,101877.75
2024-04-18T09:09:41.565Z,101864.59
2024-04-18T09:12:09.657Z,101878.63
2024-04-18T09:14:38.388Z,101891.72
2024-04-18T09:17:15.761Z,101883.63
2024-04-18T09:19:43.537Z,101884.63
2024-04-18T09:22:11.382Z,101887.09
2024-04-18T09:24:44.900Z,101889.78
2024-04-18T09:27:15.289Z,101889.25
2024-04-18T09:29:43.601Z,101883.28
2024-04-18T09:32:16.074Z,101901.84
2024-04-18T09:34:48.669Z,101889.97
2024-04-18T09:37:17.823Z,101891.75
2024-04-18T09:39:47.240Z,101890.63
2024-04-18T09:42:38.115Z,101883.16
2024-04-18T09:45:47.774Z,101899.06
2024-04-18T09:48:23.177Z,101888.41
2024-04-18T09:50:53.248Z,101896.53
2024-04-18T09:53:21.776Z,101888.81
2024-04-18T09:55:52.240Z,101887.91
2024-04-18T09:58:20.408Z,101889.66
2024-04-18T10:00:49.123Z,101893.00
2024-04-18T10:03:19.509Z,101889.91
2024-04-18T10:05:52.199Z,101892.84
2024-04-18T10:08:24.586Z,101894.38
2024-04-18T10:10:53.230Z,101885.97
2024-04-18T10:15:53.009Z,101888.16
2024-04-18T10:18:20.844Z,101903.06
2024-04-18T10:20:49.169Z,101891.94
2024-04-18T10:23:17.797Z,101884.84
2024-04-18T10:25:47.097Z,101903.47
2024-04-18T10:28:26.682Z,101901.75
2024-04-18T10:31:03.459Z,101905.13
2024-04-18T10:33:31.249Z,101906.97
2024-04-18T10:35:59.049Z,101914.75
2024-04-18T10:38:28.944Z,101907.84
2024-04-18T10:41:14.066Z,101903.69
2024-04-18T10:43:46.755Z,101911.69
2024-04-18T10:46:15.398Z,101906.34
2024-04-18T10:48:44.275Z,101910.38
2024-04-18T10:51:12.219Z,101911.41
2024-04-18T10:53:40.278Z,101912.16
2024-04-18T10:56:08.197Z,101923.91
2024-04-18T10:58:36.131Z,101905.81
2024-04-18T11:01:04.174Z,101906.91
2024-04-18T11:03:33.783Z,101898.66
2024-04-18T11:06:04.264Z,101909.53
2024-04-18T11:08:35.115Z,101909.69
2024-04-18T11:11:04.889Z,101895.72
2024-04-18T11:13:32.875Z,101912.19
2024-04-18T11:16:01.051Z,101905.28
2024-04-18T11:18:29.096Z,101903.47
2024-04-18T11:20:57.175Z,101888.34
2024-04-18T11:23:35.594Z,101895.44
2024-04-18T11:26:45.885Z,101896.13
2024-04-18T11:29:13.539Z,101900.41
2024-04-18T11:31:41.274Z,101899.09
2024-04-18T11:34:09.070Z,101894.63
2024-04-18T11:36:39.619Z,101899.44
2024-04-18T11:39:07.806Z,101919.84
2024-04-18T11:41:35.587Z,101904.13
2024-04-18T11:44:03.647Z,101904.31
2024-04-18T11:46:31.593Z,101904.19
2024-04-18T11:48:59.520Z,101898.28
2024-04-18T11:51:27.557Z,101905.97
2024-04-18T11:53:55.323Z,101898.88
2024-04-18T11:56:23.073Z,101909.59
2024-04-18T11:58:50.901Z,101907.25
2024-04-18T12:01:18.601Z,101896.91
2024-04-18T12:03:46.599Z,101910.19
2024-04-18T12:06:14.822Z,101908.19
2024-04-18T12:08:42.722Z,101910.59
2024-04-18T12:11:10.485Z,101918.56
2024-04-18T12:13:38.250Z,101924.91
2024-04-18T12:16:06.273Z,101924.47
2024-04-18T12:18:47.111Z,101925.72
2024-04-18T12:21:25.705Z,101917.59
2024-04-18T12:23:53.459Z,101911.34
2024-04-18T12:26:21.312Z,101905.91
2024-04-18T12:28:49.043Z,101912.53
2024-04-18T12:31:16.868Z,101917.84
2024-04-18T12:33:44.607Z,101920.88
2024-04-18T12:36:14.445Z,101928.66
2024-04-18T12:38:42.334Z,101936.34
2024-04-18T12:41:10.299Z,101918.56
2024-04-18T12:43:38.027Z,101914.41
2024-04-18T12:46:14.294Z,101917.75
2024-04-18T12:48:46.069Z,101923.06
2024-04-18T12:51:14.107Z,101916.84
2024-04-18T12:53:42.114Z,101916.84
2024-04-18T12:56:10.037Z,101923.44
2024-04-18T12:58:40.901Z,101913.47
2024-04-18T13:01:10.865Z,101927.94
2024-04-18T13:03:39.627Z,101916.63
2024-04-18T13:06:08.339Z,101918.72
2024-04-18T13:08:59.821Z,101909.84
2024-04-18T13:11:46.242Z,101894.63
2024-04-18T13:14:14.037Z,101906.56
2024-04-18T13:16:41.881Z,101894.59
2024-04-18T13:19:09.685Z,101897.25
2024-04-18T13:21:37.448Z,101904.03
2024-04-18T13:24:09.826Z,101894.63
2024-04-18T13:26:38.329Z,101893.25
2024-04-18T13:29:06.429Z,101884.13
2024-04-18T13:31:34.106Z,101887.78
2024-04-18T13:34:02.918Z,101891.03
2024-04-18T13:36:30.711Z,101896.13
2024-04-18T13:38:59.105Z,101894.38
2024-04-18T13:41:29.224Z,101890.28
2024-04-18T13:43:58.174Z,101884.25
2024-04-18T13:46:25.980Z,101881.84
2024-04-18T13:48:53.787Z,101885.28
2024-04-18T13:51:21.598Z,101870.31
2024-04-18T13:53:51.599Z,101866.75
2024-04-18T13:56:19.818Z,101880.66
2024-04-18T13:58:47.576Z,101873.41
2024-04-18T14:01:16.366Z,101875.88
2024-04-18T14:04:00.391Z,101874.16
2024-04-18T14:06:28.286Z,101882.75
2024-04-18T14:08:56.090Z,101875.75
2024-04-18T14:11:23.968Z,101876.91
2024-04-18T14:13:51.646Z,101870.84
2024-04-18T14:16:37.877Z,101871.72
2024-04-18T14:19:05.704Z,101877.88
2024-04-18T14:21:33.459Z,101871.94
2024-04-18T14:24:01.400Z,101867.56
2024-04-18T14:26:29.145Z,101860.63
2024-04-18T14:28:57.089Z,101864.41
2024-04-18T14:31:24.821Z,101870.28
2024-04-18T14:33:52.744Z,101868.09
2024-04-18T14:36:20.694Z,101863.56
2024-04-18T14:38:48.432Z,101868.09
2024-04-18T14:41:16.096Z,101866.19
2024-04-18T14:43:43.932Z,101860.88
2024-04-18T14:46:12.577Z,101857.13
2024-04-18T14:48:41.172Z,101851.72
2024-04-18T14:51:39.070Z,101849.69
2024-04-18T14:54:06.816Z,101850.16
2024-04-18T14:56:47.707Z,101852.31
2024-04-18T14:59:15.406Z,101848.38
2024-04-18T15:01:43.166Z,101848.75
2024-04-18T15:04:11.057Z,101853.53
2024-04-18T15:06:38.935Z,101851.63
2024-04-18T15:09:07.632Z,101856.63
2024-04-18T15:11:35.505Z,101863.41
2024-04-18T15:14:07.645Z,101854.31
2024-04-18T15:16:35.747Z,101856.25
2024-04-18T15:19:03.891Z,101855.22
2024-04-18T15:21:32.993Z,101854.09
2024-04-18T15:24:02.560Z,101857.84
2024-04-18T15:26:30.373Z,101860.78
2024-04-18T15:28:58.400Z,101847.75
2024-04-18T15:31:26.155Z,101853.00
2024-04-18T15:33:53.862Z,101854.41
2024-04-18T15:36:21.770Z,101855.09
2024-04-18T15:38:51.423Z,101844.75
2024-04-18T15:41:19.102Z,101844.00
2024-04-18T15:44:15.892Z,101848.41
2024-04-18T15:47:06.404Z,101846.56
2024-04-18T15:49:34.387Z,101850.97
2024-04-18T15:52:02.134Z,101849.63
2024-04-18T15:54:29.892Z,101842.44
2024-04-18T15:56:57.689Z,101854.78
2024-04-18T15:59:25.445Z,101853.63
2024-04-18T16:01:53.209Z,101856.47
2024-04-18T16:04:20.997Z,101853.19
2024-04-18T16:06:48.675Z,101857.38
2024-04-18T16:09:16.413Z,101854.56
2024-04-18T16:11:44.556Z,101861.50
2024-04-18T16:14:12.597Z,101848.56
2024-04-18T16:16:42.555Z,101856.88
2024-04-18T16:19:10.434Z,101853.41
2024-04-18T16:21:38.128Z,101854.50
2024-04-18T16:24:06.920Z,101857.78
2024-04-18T16:26:35.785Z,101853.81
2024-04-18T16:29:03.419Z,101847.31
2024-04-18T16:31:35.938Z,101852.66
2024-04-18T16:34:18.160Z,101848.97
2024-04-18T16:37:12.686Z,101850.38
2024-04-18T16:39:43.370Z,101853.09
2024-04-18T16:42:11.277Z,101857.56
2024-04-18T16:44:38.969Z,101866.06
2024-04-18T16:47:06.797Z,101860.16
2024-04-18T16:49:34.451Z,101859.16
2024-04-18T16:52:02.163Z,101861.22
2024-04-18T16:54:30.148Z,101850.41
2024-04-18T16:56:59.058Z,101849.50
2024-04-18T16:59:26.782Z,101845.59
2024-04-18T17:01:55.106Z,101857.63
2024-04-18T17:04:22.884Z,101846.91
2024-04-18T17:06:50.721Z,101846.53
2024-04-18T17:09:18.705Z,101847.50
2024-04-18T17:11:47.133Z,101842.94
2024-04-18T17:14:17.879Z,101839.63
2024-04-18T17:16:45.523Z,101845.47
2024-04-18T17:19:13.251Z,101841.50
2024-04-18T17:21:42.922Z,101836.94
2024-04-18T17:24:11.186Z,101830.16
2024-04-18T17:26:38.924Z,101828.16
2024-04-18T17:29:23.985Z,101831.19
2024-04-18T17:32:06.201Z,101829.41
2024-04-18T17:34:47.154Z,101825.72
2024-04-18T17:37:15.344Z,101829.16
2024-04-18T17:39:43.204Z,101824.03
2024-04-18T17:42:10.942Z,101825.44
2024-04-18T17:44:38.676Z,101815.66
2024-04-18T17:47:06.665Z,101820.56
2024-04-18T17:49:40.768Z,101816.91
2024-04-18T17:52:08.437Z,101818.91
2024-04-18T17:54:36.252Z,101820.59
2024-04-18T17:57:04.361Z,101817.03
2024-04-18T17:59:32.170Z,101816.59
2024-04-18T18:01:59.895Z,101813.22
2024-04-18T18:04:27.973Z,101806.31
2024-04-18T18:06:55.735Z,101814.81
2024-04-18T18:09:24.167Z,101808.00
2024-04-18T18:11:53.154Z,101806.63
2024-04-18T18:14:20.920Z,101812.63
2024-04-18T18:16:54.730Z,101807.72
2024-04-18T18:19:22.499Z,101814.25
2024-04-18T18:21:50.826Z,101803.28
2024-04-18T18:24:18.762Z,101798.00
2024-04-18T18:26:46.516Z,101795.94
2024-04-18T18:29:14.581Z,101790.44
2024-04-18T18:31:42.678Z,101802.56
2024-04-18T18:34:13.470Z,101798.72
2024-04-18T18:36:41.471Z,101798.25
2024-04-18T18:39:09.278Z,101793.66
2024-04-18T18:41:37.409Z,101793.00
2024-04-18T18:44:05.807Z,101801.25
2024-04-18T18:46:36.686Z,101788.22
2024-04-18T18:49:04.567Z,101791.19
2024-04-18T18:51:32.488Z,101787.88
2024-04-18T18:54:00.286Z,101789.00
2024-04-18T18:56:29.189Z,101787.84
2024-04-18T18:58:57.167Z,101781.88
2024-04-18T19:01:25.141Z,101781.44
2024-04-18T19:03:53.109Z,101779.09
2024-04-18T19:06:23.807Z,101774.47
2024-04-18T19:08:52.047Z,101767.88
2024-04-18T19:11:19.977Z,101764.56
2024-04-18T19:13:47.813Z,101766.53
2024-04-18T19:16:22.376Z,101763.06
2024-04-18T19:18:50.292Z,101759.25
2024-04-18T19:21:23.919Z,101761.91
2024-04-18T19:23:51.891Z,101763.25
2024-04-18T19:26:21.475Z,101769.59
2024-04-18T19:28:49.208Z,101759.91
2024-04-18T19:31:17.111Z,101766.91
2024-04-18T19:33:45.121Z,101761.09
2024-04-18T19:36:13.561Z,101763.06
2024-04-18T19:38:44.237Z,101760.44
2024-04-18T19:41:12.179Z,101754.94
2024-04-18T19:43:41.136Z,101761.78
2024-04-18T19:46:12.198Z,101757.63
2024-04-18T19:48:40.025Z,101759.09
2024-04-18T19:51:10.833Z,101761.44
2024-04-18T19:53:39.735Z,101757.13
2024-04-18T19:56:09.155Z,101751.16
2024-04-18T19:58:36.883Z,101754.16
2024-04-18T20:01:45.084Z,101737.00
2024-04-18T20:04:12.841Z,101730.81
2024-04-18T20:06:41.763Z,101723.59
2024-04-18T20:09:09.784Z,101731.34
2024-04-18T20:11:37.598Z,101725.09
2024-04-18T20:14:05.437Z,101715.19
2024-04-18T20:16:33.747Z,101720.25
2024-04-18T20:19:01.794Z,101722.25
2024-04-18T20:21:29.639Z,101715.53
2024-04-18T20:23:57.434Z,101715.00
2024-04-18T20:26:25.174Z,101717.81
2024-04-18T20:28:55.579Z,101717.16
2024-04-18T20:31:23.382Z,101722.47
2024-04-18T20:33:51.101Z,101725.78
2024-04-18T20:36:18.843Z,101718.03
2024-04-18T20:38:46.511Z,101717.66
2024-04-18T20:41:14.251Z,101711.56
2024-04-18T20:43:41.929Z,101712.84
2024-04-18T20:46:10.272Z,101715.34
2024-04-18T20:48:37.996Z,101710.88
2024-04-18T20:51:06.088Z,101716.63
2024-04-18T20:53:33.745Z,101717.78
2024-04-18T20:56:01.486Z,101714.72
2024-04-18T20:58:29.186Z,101718.34
2024-04-18T21:00:57.645Z,101697.50
2024-04-18T21:03:25.544Z,101705.06
2024-04-18T21:06:25.195Z,101698.31
2024-04-18T21:09:05.457Z,101689.25
2024-04-18T21:11:33.583Z,101677.84
2024-04-18T21:14:04.176Z,101665.53
2024-04-18T21:16:31.841Z,101667.09
2024-04-18T21:18:59.736Z,101655.41
2024-04-18T21:21:27.618Z,101647.28
2024-04-18T21:23:55.358Z,101638.38
2024-04-18T21:26:23.067Z,101632.09
2024-04-18T21:28:51.666Z,101637.84
2024-04-18T21:31:19.462Z,101640.22
2024-04-18T21:33:47.391Z,101647.13
2024-04-18T21:36:15.364Z,101638.34
2024-04-18T21:38:51.158Z,101631.91
2024-04-18T21:41:29.702Z,101626.00
2024-04-18T21:44:17.420Z,101622.84
2024-04-18T21:46:45.342Z,101626.97
2024-04-18T21:49:24.020Z,101621.47
2024-04-18T21:51:51.868Z,101624.53
2024-04-18T21:54:19.551Z,101611.59
2024-04-18T21:56:47.589Z,101607.00
2024-04-18T21:59:16.847Z,101603.41
2024-04-18T22:01:44.871Z,101597.41
2024-04-18T22:04:12.868Z,101601.53
2024-04-18T22:06:41.102Z,101588.00
2024-04-18T22:09:11.724Z,101587.88
2024-04-18T22:11:41.113Z,101590.66
2024-04-18T22:14:09.576Z,101596.72
2024-04-18T22:16:37.289Z,101601.22
2024-04-18T22:19:04.988Z,101605.00
2024-04-18T22:21:32.710Z,101593.06
2024-04-18T22:24:00.498Z,101593.28
2024-04-18T22:26:28.231Z,101593.78
2024-04-18T22:28:56.005Z,101597.69
2024-04-18T22:31:23.744Z,101588.63
2024-04-18T22:33:51.613Z,101591.13
2024-04-18T22:36:19.635Z,101594.97
2024-04-18T22:38:47.403Z,101598.22
2024-04-18T22:41:15.245Z,101607.81
2024-04-18T22:43:43.404Z,101602.91
2024-04-18T22:46:11.196Z,101605.63
2024-04-18T22:48:39.175Z,101611.44
2024-04-18T22:51:06.990Z,101606.38
2024-04-18T22:53:34.732Z,101596.34
2024-04-18T22:56:39.414Z,101600.81
2024-04-18T22:59:07.070Z,101586.75
2024-04-18T23:01:34.923Z,101573.34
2024-04-18T23:04:02.863Z,101561.13
2024-04-18T23:06:31.679Z,101564.22
2024-04-18T23:08:59.567Z,101556.34
2024-04-18T23:11:27.246Z,101553.41
2024-04-18T23:13:54.988Z,101550.56
2024-04-18T23:16:23.742Z,101546.75
2024-04-18T23:18:51.494Z,101548.91
2024-04-18T23:21:20.450Z,101554.84
2024-04-18T23:23:48.201Z,101541.47
2024-04-18T23:26:16.011Z,101541.00
2024-04-18T23:28:55.941Z,101534.09
2024-04-18T23:31:46.756Z,101525.47
2024-04-18T23:34:14.490Z,101525.59
2024-04-18T23:36:42.207Z,101517.34
2024-04-18T23:39:10.004Z,101518.38
2024-04-18T23:41:37.862Z,101499.38
2024-04-18T23:44:06.016Z,101498.66
2024-04-18T23:46:33.729Z,101505.91
2024-04-18T23:49:01.800Z,101498.13
2024-04-18T23:51:29.628Z,101497.59
2024-04-18T23:53:57.377Z,101505.56
2024-04-18T23:56:25.088Z,101496.06
2024-04-18T23:58:54.106Z,101493.91
